Bramble, Montserrat

6:27 PM AST on August 21, 2014 (GMT -0400)
JOHN OSBORNE AP | Change Station
CLOSE
Current Station
Airport
Location: JOHN OSBORNE AP,
Elevation: 551 ft
Nearby Weather Stations

Elev 551 ft 16.79 °N, 62.19 °W | Updated 27 minutes ago

Light Rain
Light Rain
77 °F
Feels Like 77 °F
N
10
Wind Variable Wind from East

Today
High -- | Low -- °F
--% Chance of Precip.
Yesterday
High -- | Low -- °F
Precip. -- in
5:53 AM 6:29 PM
Waning Crescent, 12% visible
Pressure 29.86 in
Visibility 6.2 miles
Clouds Mostly Cloudy 1000 ft
Scattered Clouds 3800 ft
Mostly Cloudy 7000 ft
Dew Point 75 °F
Humidity 94%
Rainfall 0.00 in
Snow Depth Not available.
UV 0 out of 12
Pollen Not available.
Air Quality Not available.
Flu Activity Not available.
METAR TRPG 212200Z 10009KT 9999 -RA BKN010 SCT038 BKN070 25/24 Q1011 RMK JP ALL QUADS

More Conditions Fewer Conditions

Pressure 29.86 in
Visibility 6.2 miles
Clouds Mostly Cloudy 1000 ft
Scattered Clouds 3800 ft
Mostly Cloudy 7000 ft
Dew Point 75 °F
Humidity 94%
Rainfall 0.00 in
Snow Depth Not available.
UV 0 out of 12
Pollen Not available.
Air Quality Not available.
Flu Activity Not available.
METAR TRPG 212200Z 10009KT 9999 -RA BKN010 SCT038 BKN070 25/24 Q1011 RMK JP ALL QUADS

More Conditions Fewer Conditions

10-Day Weather Forecast

Almanac

Astronomy

Aug. 21, 2014 Rise Set
Actual Time 5:53 AM AST 6:29 PM AST
Civil Twilight 5:31 AM AST 6:52 PM AST
Nautical Twilight 5:05 AM AST 7:18 PM AST
Astronomical Twilight 4:38 AM AST 7:44 PM AST
Moon 2:34 AM AST 3:42 PM AST
Length of Visible Light 13h 20m
Length of Day
12h 36m
Tomorrow will be 0m 52s shorter.
Waning Crescent, 12% of the Moon is Illuminated
Today
Waning Crescent
Aug 25
New
Sep 2
First Quarter
Sep 8
Full
Sep 15
Last Quarter

Today's Extremes

Country Highs Country Lows

Community

WunderPhotos

Upload Photos

1,746,038 photos uploaded!

WunderBlogs® & News

Nearby

Snow Depth

Not available.

Earthquake Activity

City Distance Mag. Time & Date
No recent earthquake activity has been reported nearby.
Minimum magnitude displayed is 2.5.

Coastal Water Temperatures

Place Temperature
No Stations Reporting

Nearby Weather Stations